createdAt,value
2019-03-20T00:00:29.794Z,3.66
2019-03-20T00:01:29.798Z,3.62
2019-03-20T00:02:29.534Z,3.66
2019-03-20T00:03:30.470Z,3.58
2019-03-20T00:04:29.499Z,3.58
2019-03-20T00:05:29.741Z,3.6
2019-03-20T00:06:29.473Z,3.6
2019-03-20T00:07:29.721Z,3.58
2019-03-20T00:08:29.714Z,3.47
2019-03-20T00:09:29.730Z,3.55
2019-03-20T00:10:29.703Z,3.5
2019-03-20T00:11:29.699Z,3.45
2019-03-20T00:12:29.417Z,3.41
2019-03-20T00:13:29.409Z,3.47
2019-03-20T00:14:29.665Z,3.42
2019-03-20T00:15:29.389Z,3.36
2019-03-20T00:16:29.648Z,3.44
2019-03-20T00:17:29.379Z,3.42
2019-03-20T00:18:29.662Z,3.47
2019-03-20T00:19:29.597Z,3.37
2019-03-20T00:20:29.339Z,3.45
2019-03-20T00:21:29.336Z,3.4
2019-03-20T00:22:29.314Z,3.4
2019-03-20T00:23:29.062Z,3.47
2019-03-20T00:24:29.299Z,3.44
2019-03-20T00:25:29.043Z,3.47
2019-03-20T00:26:29.530Z,3.53
2019-03-20T00:27:29.307Z,3.42
2019-03-20T00:28:29.256Z,3.44
2019-03-20T00:29:29.486Z,3.42
2019-03-20T00:30:28.989Z,3.42
2019-03-20T00:31:29.491Z,3.44
2019-03-20T00:32:29.465Z,3.34
2019-03-20T00:33:31.908Z,3.29
2019-03-20T00:34:29.197Z,3.28
2019-03-20T00:35:28.952Z,3.34
2019-03-20T00:36:28.920Z,3.29
2019-03-20T00:37:28.908Z,3.25
2019-03-20T00:38:29.143Z,3.28
2019-03-20T00:39:29.381Z,3.22
2019-03-20T00:40:29.370Z,3.32
2019-03-20T00:41:29.105Z,3.23
2019-03-20T00:42:28.860Z,3.26
2019-03-20T00:43:29.365Z,3.23
2019-03-20T00:44:29.100Z,3.19
2019-03-20T00:45:29.063Z,3.28
2019-03-20T00:46:28.813Z,3.11
2019-03-20T00:47:29.056Z,3.18
2019-03-20T00:48:28.803Z,3.11
2019-03-20T00:49:29.291Z,3.18
2019-03-20T00:50:29.288Z,3.1
2019-03-20T00:51:28.760Z,2.97
2019-03-20T00:52:29.065Z,3.05
2019-03-20T00:53:28.979Z,3.07
2019-03-20T00:54:28.979Z,3.1
2019-03-20T00:55:29.209Z,3.08
2019-03-20T00:56:28.970Z,3.1
2019-03-20T00:57:28.938Z,3.08
2019-03-20T00:58:29.183Z,3.13
2019-03-20T00:59:29.183Z,3.14
2019-03-20T01:00:29.167Z,3.18
2019-03-20T01:01:29.173Z,3.1
2019-03-20T01:02:28.880Z,3.11
2019-03-20T01:03:28.881Z,3.13
2019-03-20T01:04:29.110Z,3.1
2019-03-20T01:05:29.098Z,3.22
2019-03-20T01:06:28.844Z,3.19
2019-03-20T01:07:28.827Z,3.23
2019-03-20T01:08:28.817Z,3.28
2019-03-20T01:09:28.558Z,3.23
2019-03-20T01:10:28.823Z,3.29
2019-03-20T01:11:28.788Z,3.25
2019-03-20T01:12:28.796Z,3.34
2019-03-20T01:13:29.009Z,3.29
2019-03-20T01:14:29.021Z,3.31
2019-03-20T01:15:28.743Z,3.21
2019-03-20T01:16:28.488Z,3.23
2019-03-20T01:17:28.721Z,3.23
2019-03-20T01:18:28.473Z,3.29
2019-03-20T01:19:28.968Z,3.08
2019-03-20T01:20:28.450Z,3.08
2019-03-20T01:21:28.702Z,3.05
2019-03-20T01:22:28.915Z,3.1
2019-03-20T01:23:28.911Z,3
2019-03-20T01:24:29.696Z,3.01
2019-03-20T01:25:28.649Z,3.01
2019-03-20T01:26:28.619Z,2.97
2019-03-20T01:27:28.870Z,2.97
2019-03-20T01:28:28.611Z,2.97
2019-03-20T01:29:28.849Z,2.97
2019-03-20T01:30:28.825Z,2.97
2019-03-20T01:31:28.829Z,2.85
2019-03-20T01:32:28.811Z,2.87
2019-03-20T01:33:28.548Z,2.9
2019-03-20T01:34:28.800Z,2.79
2019-03-20T01:35:29.110Z,2.87
2019-03-20T01:36:28.274Z,2.74
2019-03-20T01:37:28.765Z,2.82
2019-03-20T01:38:28.497Z,2.79
2019-03-20T01:39:28.239Z,2.69
2019-03-20T01:40:28.721Z,2.85
2019-03-20T01:41:37.523Z,2.77
2019-03-20T01:42:28.993Z,2.69
2019-03-20T01:43:28.442Z,2.69
2019-03-20T01:44:29.473Z,2.72
2019-03-20T01:45:28.427Z,2.64
2019-03-20T01:46:28.425Z,2.57
2019-03-20T01:47:28.644Z,2.6
2019-03-20T01:48:28.152Z,2.57
2019-03-20T01:49:28.416Z,2.62
2019-03-20T01:50:28.123Z,2.65
2019-03-20T01:51:28.352Z,2.62
2019-03-20T01:52:28.346Z,2.68
2019-03-20T01:53:28.326Z,2.65
2019-03-20T01:54:28.078Z,2.74
2019-03-20T01:55:28.571Z,2.75
2019-03-20T01:56:28.313Z,2.69
2019-03-20T01:57:28.568Z,2.67
2019-03-20T01:58:28.273Z,2.62
2019-03-20T01:59:28.512Z,2.61
2019-03-20T02:00:28.268Z,2.56
2019-03-20T02:01:28.239Z,2.56
2019-03-20T02:02:28.488Z,2.56
2019-03-20T02:03:28.479Z,2.61
2019-03-20T02:04:28.211Z,2.56
2019-03-20T02:05:39.923Z,2.51
2019-03-20T02:06:28.444Z,2.56
2019-03-20T02:07:28.435Z,2.49
2019-03-20T02:08:28.174Z,2.53
2019-03-20T02:09:28.155Z,2.42
2019-03-20T02:10:28.155Z,2.42
2019-03-20T02:11:28.153Z,2.38
2019-03-20T02:12:28.126Z,2.38
2019-03-20T02:13:28.154Z,2.33
2019-03-20T02:14:28.084Z,2.28
2019-03-20T02:15:40.257Z,2.33
2019-03-20T02:16:28.080Z,2.38
2019-03-20T02:17:28.074Z,2.26
2019-03-20T02:18:27.821Z,2.39
2019-03-20T02:19:28.053Z,2.28
2019-03-20T02:20:27.804Z,2.38
2019-03-20T02:21:28.295Z,2.44
2019-03-20T02:22:28.007Z,2.43
2019-03-20T02:23:27.761Z,2.33
2019-03-20T02:24:27.736Z,2.35
2019-03-20T02:25:28.001Z,2.32
2019-03-20T02:26:27.961Z,2.46
2019-03-20T02:27:27.733Z,2.39
2019-03-20T02:28:27.791Z,2.35
2019-03-20T02:29:27.964Z,2.31
2019-03-20T02:30:27.683Z,2.38
2019-03-20T02:31:28.171Z,2.26
2019-03-20T02:32:27.661Z,2.25
2019-03-20T02:33:27.908Z,2.13
2019-03-20T02:34:28.140Z,2.15
2019-03-20T02:35:27.879Z,2.08
2019-03-20T02:36:28.126Z,2.13
2019-03-20T02:37:27.866Z,2.11
2019-03-20T02:38:28.115Z,2.04
2019-03-20T02:39:27.823Z,1.99
2019-03-20T02:40:28.087Z,1.91
2019-03-20T02:41:27.578Z,2.08
2019-03-20T02:42:27.800Z,1.94
2019-03-20T02:43:27.822Z,2
2019-03-20T02:44:28.013Z,1.95
2019-03-20T02:45:28.012Z,1.94
2019-03-20T02:46:27.761Z,1.91
2019-03-20T02:47:27.979Z,2.02
2019-03-20T02:48:27.744Z,2.06
2019-03-20T02:49:27.966Z,2.14
2019-03-20T02:50:27.947Z,2.11
2019-03-20T02:51:27.936Z,2.07
2019-03-20T02:52:27.918Z,2.15
2019-03-20T02:53:27.671Z,2.14
2019-03-20T02:54:27.921Z,2.13
2019-03-20T02:55:27.648Z,2.11
2019-03-20T02:56:27.878Z,2.06
2019-03-20T02:57:27.870Z,2.14
2019-03-20T02:58:27.600Z,2.08
2019-03-20T02:59:27.867Z,2.11
2019-03-20T03:00:27.867Z,2.06
2019-03-20T03:01:27.850Z,1.91
2019-03-20T03:02:27.811Z,2.02
2019-03-20T03:03:27.540Z,1.97
2019-03-20T03:04:27.784Z,2.07
2019-03-20T03:05:27.781Z,2.02
2019-03-20T03:06:27.523Z,2
2019-03-20T03:07:27.252Z,1.97
2019-03-20T03:08:27.546Z,1.85
2019-03-20T03:09:27.737Z,1.8
2019-03-20T03:10:27.760Z,1.81
2019-03-20T03:11:27.469Z,1.77
2019-03-20T03:12:27.433Z,1.8
2019-03-20T03:13:27.699Z,1.73
2019-03-20T03:14:27.418Z,1.73
2019-03-20T03:15:27.659Z,1.74
2019-03-20T03:16:27.660Z,1.73
2019-03-20T03:17:27.627Z,1.76
2019-03-20T03:18:27.392Z,1.81
2019-03-20T03:19:27.617Z,1.73
2019-03-20T03:20:27.357Z,1.85
2019-03-20T03:21:27.605Z,1.91
2019-03-20T03:22:27.592Z,1.89
2019-03-20T03:23:27.557Z,1.97
2019-03-20T03:24:27.544Z,1.99
2019-03-20T03:25:27.557Z,1.87
2019-03-20T03:26:27.290Z,1.91
2019-03-20T03:27:27.376Z,1.97
2019-03-20T03:28:27.514Z,1.99
2019-03-20T03:29:27.484Z,1.85
2019-03-20T03:30:27.262Z,1.91
2019-03-20T03:31:27.498Z,1.8
2019-03-20T03:32:27.567Z,1.81
2019-03-20T03:33:27.572Z,1.78
2019-03-20T03:34:27.435Z,1.74
2019-03-20T03:35:27.174Z,1.8
2019-03-20T03:36:27.210Z,1.74
2019-03-20T03:37:27.420Z,1.76
2019-03-20T03:38:27.181Z,1.58
2019-03-20T03:39:27.364Z,1.66
2019-03-20T03:40:26.859Z,1.71
2019-03-20T03:41:27.373Z,1.63
2019-03-20T03:42:27.082Z,1.63
2019-03-20T03:43:29.204Z,1.53
2019-03-20T03:44:27.148Z,1.49
2019-03-20T03:45:27.320Z,1.52
2019-03-20T03:46:27.046Z,1.55
2019-03-20T03:47:27.299Z,1.5
2019-03-20T03:48:27.045Z,1.52
2019-03-20T03:49:27.303Z,1.53
2019-03-20T03:50:27.335Z,1.6
2019-03-20T03:51:26.992Z,1.53
2019-03-20T03:52:27.251Z,1.49
2019-03-20T03:53:27.213Z,1.53
2019-03-20T03:54:27.007Z,1.56
2019-03-20T03:55:27.176Z,1.5
2019-03-20T03:56:27.178Z,1.53
2019-03-20T03:57:26.929Z,1.6
2019-03-20T03:58:27.158Z,1.53
2019-03-20T03:59:26.894Z,1.53
2019-03-20T04:00:26.915Z,1.55
2019-03-20T04:01:27.212Z,1.5
2019-03-20T04:02:27.101Z,1.56
2019-03-20T04:03:27.102Z,1.44
2019-03-20T04:04:27.100Z,1.48
2019-03-20T04:05:27.083Z,1.35
2019-03-20T04:06:40.273Z,1.44
2019-03-20T04:07:28.710Z,1.37
2019-03-20T04:08:27.020Z,1.48
2019-03-20T04:09:27.056Z,1.48
2019-03-20T04:10:27.007Z,1.45
2019-03-20T04:11:26.753Z,1.42
2019-03-20T04:12:26.799Z,1.42
2019-03-20T04:13:26.968Z,1.34
2019-03-20T04:14:26.954Z,1.4
2019-03-20T04:15:26.700Z,1.38
2019-03-20T04:16:26.931Z,1.4
2019-03-20T04:17:26.937Z,1.4
2019-03-20T04:18:26.904Z,1.38
2019-03-20T04:19:26.898Z,1.41
2019-03-20T04:20:26.898Z,1.4
2019-03-20T04:21:26.646Z,1.41
2019-03-20T04:22:26.874Z,1.42
2019-03-20T04:23:26.698Z,1.44
2019-03-20T04:24:26.842Z,1.41
2019-03-20T04:25:26.572Z,1.34
2019-03-20T04:26:26.826Z,1.37
2019-03-20T04:27:26.652Z,1.44
2019-03-20T04:28:26.838Z,1.4
2019-03-20T04:29:26.537Z,1.44
2019-03-20T04:30:26.516Z,1.41
2019-03-20T04:31:26.768Z,1.41
2019-03-20T04:32:26.491Z,1.44
2019-03-20T04:33:26.494Z,1.34
2019-03-20T04:34:26.718Z,1.48
2019-03-20T04:35:26.768Z,1.45
2019-03-20T04:36:26.706Z,1.37
2019-03-20T04:37:26.448Z,1.44
2019-03-20T04:38:26.676Z,1.38
2019-03-20T04:39:26.167Z,1.34
2019-03-20T04:40:26.393Z,1.31
2019-03-20T04:41:26.641Z,1.3
2019-03-20T04:42:26.640Z,1.34
2019-03-20T04:43:26.382Z,1.34
2019-03-20T04:44:26.353Z,1.28
2019-03-20T04:45:26.623Z,1.3
2019-03-20T04:46:26.072Z,1.35
2019-03-20T04:47:26.307Z,1.24
2019-03-20T04:48:26.047Z,1.24
2019-03-20T04:49:26.290Z,1.28
2019-03-20T04:50:26.276Z,1.2
2019-03-20T04:51:26.268Z,1.3
2019-03-20T04:52:26.509Z,1.23
2019-03-20T04:53:25.985Z,1.23
2019-03-20T04:54:26.270Z,1.2
2019-03-20T04:55:26.251Z,1.26
2019-03-20T04:56:26.210Z,1.23
2019-03-20T04:57:25.963Z,1.22
2019-03-20T04:58:26.438Z,1.23
2019-03-20T04:59:26.440Z,1.23
2019-03-20T05:00:26.179Z,1.2
2019-03-20T05:01:25.906Z,1.26
2019-03-20T05:02:26.134Z,1.19
2019-03-20T05:03:26.366Z,1.2
2019-03-20T05:04:26.091Z,1.22
2019-03-20T05:05:26.101Z,1.14
2019-03-20T05:06:29.575Z,1.13
2019-03-20T05:07:26.076Z,1.16
2019-03-20T05:08:26.051Z,1.14
2019-03-20T05:09:26.083Z,1.13
2019-03-20T05:10:26.284Z,1.16
2019-03-20T05:11:26.284Z,1.14
2019-03-20T05:12:26.005Z,1.16
2019-03-20T05:13:26.249Z,1.13
2019-03-20T05:14:25.986Z,1.14
2019-03-20T05:15:26.219Z,1.16
2019-03-20T05:16:26.212Z,1.17
2019-03-20T05:17:25.941Z,1.17
2019-03-20T05:18:25.687Z,1.2
2019-03-20T05:19:26.178Z,1.24
2019-03-20T05:20:25.910Z,1.38
2019-03-20T05:21:25.905Z,1.34
2019-03-20T05:22:25.639Z,1.4
2019-03-20T05:23:25.853Z,1.4
2019-03-20T05:24:25.855Z,1.42
2019-03-20T05:25:25.889Z,1.34
2019-03-20T05:26:25.582Z,1.42
2019-03-20T05:27:26.080Z,1.38
2019-03-20T05:28:26.058Z,1.4
2019-03-20T05:29:25.806Z,1.38
2019-03-20T05:30:25.791Z,1.34
2019-03-20T05:31:25.776Z,1.28
2019-03-20T05:32:26.061Z,1.22
2019-03-20T05:33:26.009Z,1.23
2019-03-20T05:34:25.999Z,1.23
2019-03-20T05:35:25.988Z,1.17
2019-03-20T05:36:25.730Z,1.19
2019-03-20T05:37:25.702Z,1.26
2019-03-20T05:38:25.706Z,1.22
2019-03-20T05:39:25.426Z,1.23
2019-03-20T05:40:25.929Z,1.35
2019-03-20T05:41:25.917Z,1.24
2019-03-20T05:42:25.892Z,1.28
2019-03-20T05:43:25.649Z,1.31
2019-03-20T05:44:25.864Z,1.32
2019-03-20T05:45:25.855Z,1.49
2019-03-20T05:46:25.851Z,1.42
2019-03-20T05:47:25.831Z,1.53
2019-03-20T05:48:25.321Z,1.59
2019-03-20T05:49:25.301Z,1.63
2019-03-20T05:50:25.788Z,1.66
2019-03-20T05:51:25.552Z,1.77
2019-03-20T05:52:25.517Z,1.77
2019-03-20T05:53:25.498Z,1.74
2019-03-20T05:54:25.547Z,1.8
2019-03-20T05:55:25.486Z,1.85
2019-03-20T05:56:25.215Z,1.88
2019-03-20T05:57:25.210Z,2.06
2019-03-20T05:58:25.440Z,2.13
2019-03-20T05:59:25.743Z,2.08
2019-03-20T06:00:25.480Z,2.15
2019-03-20T06:01:25.431Z,2.11
2019-03-20T06:02:28.156Z,2.07
2019-03-20T06:03:25.399Z,2.15
2019-03-20T06:04:25.636Z,2.13
2019-03-20T06:05:25.372Z,2.15
2019-03-20T06:06:25.361Z,2.17
2019-03-20T06:07:26.599Z,2.14
2019-03-20T06:08:25.339Z,2.17
2019-03-20T06:09:25.579Z,2.13
2019-03-20T06:10:25.571Z,2.24
2019-03-20T06:11:25.537Z,2.2
2019-03-20T06:12:25.535Z,2.15
2019-03-20T06:13:25.514Z,2.13
2019-03-20T06:14:25.509Z,2.22
2019-03-20T06:15:27.042Z,2.33
2019-03-20T06:16:25.498Z,2.29
2019-03-20T06:17:25.220Z,2.32
2019-03-20T06:18:25.463Z,2.42
2019-03-20T06:19:25.213Z,2.46
2019-03-20T06:20:24.971Z,2.35
2019-03-20T06:21:25.186Z,2.43
2019-03-20T06:22:27.129Z,2.5
2019-03-20T06:23:24.908Z,2.53
2019-03-20T06:24:25.159Z,2.47
2019-03-20T06:25:26.040Z,2.56
2019-03-20T06:26:25.374Z,2.62
2019-03-20T06:27:25.125Z,2.54
2019-03-20T06:28:24.849Z,2.61
2019-03-20T06:29:25.397Z,2.57
2019-03-20T06:30:25.339Z,2.62
2019-03-20T06:31:25.315Z,2.68
2019-03-20T06:32:24.818Z,2.57
2019-03-20T06:33:25.076Z,2.62
2019-03-20T06:34:25.068Z,2.6
2019-03-20T06:35:25.045Z,2.61
2019-03-20T06:36:25.014Z,2.64
2019-03-20T06:37:34.882Z,2.74
2019-03-20T06:38:25.250Z,2.68
2019-03-20T06:39:24.732Z,2.74
2019-03-20T06:40:24.990Z,2.64
2019-03-20T06:41:24.953Z,2.69
2019-03-20T06:42:24.952Z,2.72
2019-03-20T06:43:25.189Z,2.71
2019-03-20T06:44:24.716Z,2.67
2019-03-20T06:45:25.191Z,2.77
2019-03-20T06:46:24.941Z,2.77
2019-03-20T06:47:24.884Z,2.87
2019-03-20T06:48:24.876Z,2.98
2019-03-20T06:49:25.127Z,3
2019-03-20T06:50:24.876Z,3.01
2019-03-20T06:51:24.844Z,3.04
2019-03-20T06:52:25.076Z,3.1
2019-03-20T06:53:24.843Z,3.08
2019-03-20T06:54:24.566Z,3.11
2019-03-20T06:55:25.047Z,3.08
2019-03-20T06:56:24.796Z,3.1
2019-03-20T06:57:24.796Z,3.1
2019-03-20T06:58:24.548Z,3.13
2019-03-20T06:59:24.774Z,3.23
2019-03-20T07:00:24.772Z,3.25
2019-03-20T07:01:24.748Z,3.26
2019-03-20T07:02:24.733Z,3.37
2019-03-20T07:03:24.751Z,3.4
2019-03-20T07:04:24.961Z,3.5
2019-03-20T07:05:24.951Z,3.55
2019-03-20T07:06:24.460Z,3.7
2019-03-20T07:07:26.038Z,3.87
2019-03-20T07:08:24.414Z,4.05
2019-03-20T07:09:24.676Z,4.6
2019-03-20T07:10:24.902Z,5.14
2019-03-20T07:11:24.895Z,5.93
2019-03-20T07:12:24.628Z,6.49
2019-03-20T07:13:24.867Z,7.06
2019-03-20T07:14:24.869Z,7.54
2019-03-20T07:15:24.365Z,8
2019-03-20T07:16:24.898Z,8.44
2019-03-20T07:17:24.848Z,8.67
2019-03-20T07:18:24.830Z,9.06
2019-03-20T07:19:24.581Z,9.32
2019-03-20T07:20:24.569Z,9.37
2019-03-20T07:21:24.828Z,9.5
2019-03-20T07:22:24.871Z,9.74
2019-03-20T07:23:24.572Z,9.92
2019-03-20T07:24:24.576Z,10.09
2019-03-20T07:25:24.559Z,10.34
2019-03-20T07:26:24.558Z,10.51
2019-03-20T07:27:24.801Z,10.57
2019-03-20T07:28:24.807Z,10.68
2019-03-20T07:29:24.588Z,10.67
2019-03-20T07:30:24.818Z,10.76
2019-03-20T07:31:24.791Z,10.81
2019-03-20T07:32:24.786Z,10.84
2019-03-20T07:33:24.787Z,11.18
2019-03-20T07:34:24.518Z,11.41
2019-03-20T07:35:24.794Z,11.48
2019-03-20T07:36:24.773Z,11.78
2019-03-20T07:37:24.667Z,11.73
2019-03-20T07:38:24.769Z,11.54
2019-03-20T07:39:24.498Z,11.6
2019-03-20T07:40:24.251Z,11.72
2019-03-20T07:41:24.562Z,11.75
2019-03-20T07:42:24.770Z,11.91
2019-03-20T07:43:26.901Z,12.04
2019-03-20T07:44:24.300Z,12.02
2019-03-20T07:45:24.768Z,11.88
2019-03-20T07:46:24.506Z,11.83
2019-03-20T07:47:24.511Z,12.04
2019-03-20T07:48:27.359Z,12.06
2019-03-20T07:49:24.510Z,12.09
2019-03-20T07:50:24.766Z,12
2019-03-20T07:51:24.778Z,11.99
2019-03-20T07:52:24.769Z,11.99
2019-03-20T07:53:24.493Z,12.09
2019-03-20T07:54:24.492Z,12.25
2019-03-20T07:55:24.250Z,12.29
2019-03-20T07:56:24.543Z,12.36
2019-03-20T07:57:24.737Z,12.28
2019-03-20T07:58:24.499Z,12.36
2019-03-20T07:59:24.240Z,12.32
2019-03-20T08:00:24.498Z,12.35
2019-03-20T08:01:24.961Z,12.49
2019-03-20T08:02:24.758Z,12.68
2019-03-20T08:03:24.500Z,12.7
2019-03-20T08:04:24.813Z,12.82
2019-03-20T08:05:33.709Z,12.94
2019-03-20T08:06:24.739Z,13.22
2019-03-20T08:07:24.740Z,13.3
2019-03-20T08:08:24.480Z,13.39
2019-03-20T08:09:25.719Z,13.33
2019-03-20T08:10:24.499Z,13.46
2019-03-20T08:11:24.732Z,13.63
2019-03-20T08:12:24.515Z,13.72
2019-03-20T08:13:24.758Z,13.86
2019-03-20T08:14:24.727Z,13.95
2019-03-20T08:15:24.777Z,13.92
2019-03-20T08:16:24.238Z,13.85
2019-03-20T08:17:24.480Z,14.04
2019-03-20T08:18:24.751Z,14.12
2019-03-20T08:19:24.486Z,14.23
2019-03-20T08:20:24.233Z,14.58
2019-03-20T08:21:24.490Z,14.6
2019-03-20T08:22:24.241Z,14.44
2019-03-20T08:23:24.729Z,14.44
2019-03-20T08:24:24.494Z,14.41
2019-03-20T08:25:24.749Z,14.15
2019-03-20T08:26:24.491Z,13.86
2019-03-20T08:27:24.735Z,13.16
2019-03-20T08:28:24.496Z,12.58
2019-03-20T08:29:24.484Z,11.97
2019-03-20T08:30:24.762Z,11.25
2019-03-20T08:31:24.740Z,10.54
2019-03-20T08:32:24.531Z,10.09
2019-03-20T08:33:24.527Z,9.89
2019-03-20T08:34:24.501Z,9.56
2019-03-20T08:35:24.745Z,9.47
2019-03-20T08:36:24.519Z,9.1
2019-03-20T08:37:24.736Z,8.85
2019-03-20T08:38:24.772Z,8.74
2019-03-20T08:39:24.249Z,8.63
2019-03-20T08:40:25.952Z,8.41
2019-03-20T08:41:24.488Z,8.3
2019-03-20T08:42:24.543Z,8.24
2019-03-20T08:43:24.539Z,8.27
2019-03-20T08:44:24.536Z,8.19
2019-03-20T08:45:24.744Z,8.27
2019-03-20T08:46:24.526Z,8.15
2019-03-20T08:47:24.526Z,8.26
2019-03-20T08:48:31.034Z,8.2
2019-03-20T08:49:24.510Z,8.28
2019-03-20T08:50:24.540Z,8.37
2019-03-20T08:51:24.505Z,8.44
2019-03-20T08:52:24.484Z,8.53
2019-03-20T08:53:24.464Z,8.55
2019-03-20T08:54:24.498Z,8.78
2019-03-20T08:55:24.804Z,8.74
2019-03-20T08:56:24.475Z,8.73
2019-03-20T08:57:30.980Z,8.81
2019-03-20T08:58:24.217Z,8.84
2019-03-20T08:59:24.454Z,8.82
2019-03-20T09:00:24.547Z,8.69
2019-03-20T09:01:33.017Z,8.78
2019-03-20T09:02:24.706Z,8.7
2019-03-20T09:03:24.439Z,8.64
2019-03-20T09:04:24.403Z,8.79
2019-03-20T09:05:24.472Z,8.79
2019-03-20T09:06:24.386Z,8.67
2019-03-20T09:07:24.375Z,8.63
2019-03-20T09:08:33.981Z,8.64
2019-03-20T09:09:24.384Z,8.71
2019-03-20T09:10:24.425Z,8.7
2019-03-20T09:11:24.376Z,8.82
2019-03-20T09:12:24.656Z,8.85
2019-03-20T09:13:24.406Z,8.94
2019-03-20T09:14:24.154Z,8.71
2019-03-20T09:15:24.756Z,8.61
2019-03-20T09:16:24.376Z,8.45
2019-03-20T09:17:24.632Z,8.44
2019-03-20T09:18:24.611Z,8.51
2019-03-20T09:19:24.320Z,8.61
2019-03-20T09:20:24.136Z,8.7
2019-03-20T09:21:24.315Z,8.87
2019-03-20T09:22:24.308Z,9.02
2019-03-20T09:23:24.310Z,9.21
2019-03-20T09:24:24.542Z,9.26
2019-03-20T09:25:24.314Z,9.43
2019-03-20T09:26:24.291Z,9.43
2019-03-20T09:27:24.035Z,9.47
2019-03-20T09:28:24.524Z,9.37
2019-03-20T09:29:24.279Z,9.4
2019-03-20T09:30:24.364Z,9.37
2019-03-20T09:31:24.269Z,9.36
2019-03-20T09:32:24.492Z,9.32
2019-03-20T09:33:24.522Z,9.23
2019-03-20T09:34:24.006Z,9.1
2019-03-20T09:35:24.253Z,8.97
2019-03-20T09:36:24.285Z,8.94
2019-03-20T09:37:24.223Z,8.81
2019-03-20T09:38:24.484Z,8.81
2019-03-20T09:39:24.466Z,8.81
2019-03-20T09:40:26.194Z,8.85
2019-03-20T09:41:23.977Z,8.89
2019-03-20T09:42:24.435Z,8.97
2019-03-20T09:43:24.439Z,8.95
2019-03-20T09:44:24.188Z,9.04
2019-03-20T09:45:24.485Z,9.19
2019-03-20T09:46:24.430Z,9.28
2019-03-20T09:47:24.414Z,9.54
2019-03-20T09:48:24.173Z,9.61
2019-03-20T09:49:24.415Z,9.79
2019-03-20T09:50:24.453Z,9.83
2019-03-20T09:51:24.424Z,9.8
2019-03-20T09:52:24.400Z,9.72
2019-03-20T09:53:24.146Z,9.87
2019-03-20T09:54:24.137Z,9.86
2019-03-20T09:55:24.195Z,9.8
2019-03-20T09:56:24.178Z,9.91
2019-03-20T09:57:24.362Z,9.91
2019-03-20T09:58:24.354Z,9.89
2019-03-20T09:59:24.110Z,9.91
2019-03-20T10:00:24.426Z,9.8
2019-03-20T10:01:24.343Z,9.68
2019-03-20T10:02:24.091Z,9.68
2019-03-20T10:03:24.346Z,9.68
2019-03-20T10:04:24.093Z,9.72
2019-03-20T10:05:24.413Z,9.65
2019-03-20T10:06:24.318Z,9.62
2019-03-20T10:07:24.324Z,9.56
2019-03-20T10:08:24.305Z,9.62
2019-03-20T10:09:24.073Z,9.79
2019-03-20T10:10:24.362Z,9.87
2019-03-20T10:11:24.368Z,9.97
2019-03-20T10:12:24.341Z,10.2
2019-03-20T10:13:24.140Z,10.16
2019-03-20T10:14:24.338Z,10.16
2019-03-20T10:15:24.103Z,10.17
2019-03-20T10:16:24.304Z,10.25
2019-03-20T10:17:24.035Z,10.3
2019-03-20T10:18:24.314Z,10.42
2019-03-20T10:19:24.313Z,10.35
2019-03-20T10:22:24.029Z,10.51
2019-03-20T10:23:24.274Z,10.61
2019-03-20T10:24:23.781Z,10.69
2019-03-20T10:25:24.033Z,10.79
2019-03-20T10:26:24.016Z,10.87
2019-03-20T10:27:24.264Z,10.82
2019-03-20T10:28:23.964Z,10.87
2019-03-20T10:29:24.239Z,10.78
2019-03-20T10:30:24.331Z,10.79
2019-03-20T10:31:23.995Z,10.75
2019-03-20T10:32:24.014Z,10.72
2019-03-20T10:33:24.206Z,10.76
2019-03-20T10:34:24.243Z,10.78
2019-03-20T10:35:23.707Z,10.79
2019-03-20T10:36:24.220Z,10.74
2019-03-20T10:37:24.253Z,10.81
2019-03-20T10:38:24.206Z,10.81
2019-03-20T10:39:24.222Z,10.86
2019-03-20T10:40:24.264Z,10.92
2019-03-20T10:41:23.955Z,10.97
2019-03-20T10:42:24.236Z,11.04
2019-03-20T10:43:24.223Z,11.05
2019-03-20T10:44:24.199Z,11.02
2019-03-20T10:45:24.239Z,10.96
2019-03-20T10:46:24.206Z,10.94
2019-03-20T10:47:24.209Z,10.76
2019-03-20T10:48:24.210Z,10.89
2019-03-20T10:49:24.204Z,10.78
2019-03-20T10:50:26.204Z,10.92
2019-03-20T10:51:23.929Z,11.02
2019-03-20T10:52:24.186Z,11.08
2019-03-20T10:53:23.931Z,11.08
2019-03-20T10:54:24.177Z,11.17
2019-03-20T10:55:23.930Z,11.27
2019-03-20T10:56:24.177Z,11.19
2019-03-20T10:57:24.147Z,11.44
2019-03-20T10:58:24.239Z,11.4
2019-03-20T10:59:23.892Z,11.43
2019-03-20T11:00:23.978Z,11.4
2019-03-20T11:01:24.147Z,11.47
2019-03-20T11:02:23.871Z,11.4
2019-03-20T11:03:23.903Z,11.48
2019-03-20T11:04:24.127Z,11.6
2019-03-20T11:05:23.936Z,11.55
2019-03-20T11:06:24.119Z,11.54
2019-03-20T11:07:23.883Z,11.5
2019-03-20T11:08:24.165Z,11.59
2019-03-20T11:09:23.871Z,11.65
2019-03-20T11:10:23.914Z,11.72
2019-03-20T11:11:32.194Z,11.8
2019-03-20T11:12:23.847Z,11.72
2019-03-20T11:13:24.088Z,11.75
2019-03-20T11:14:23.832Z,11.8
2019-03-20T11:15:24.167Z,11.75
2019-03-20T11:16:23.843Z,11.77
2019-03-20T11:17:23.848Z,11.54
2019-03-20T11:18:24.073Z,11.43
2019-03-20T11:19:23.588Z,11.48
2019-03-20T11:20:24.189Z,11.43
2019-03-20T11:21:23.794Z,11.59
2019-03-20T11:22:24.192Z,11.54
2019-03-20T11:23:23.805Z,11.6
2019-03-20T11:24:23.802Z,11.55
2019-03-20T11:25:23.841Z,11.45
2019-03-20T11:26:23.785Z,11.44
2019-03-20T11:27:27.441Z,11.43
2019-03-20T11:28:24.046Z,11.57
2019-03-20T11:29:26.722Z,11.59
2019-03-20T11:30:24.047Z,11.73
2019-03-20T11:31:23.773Z,11.77
2019-03-20T11:32:23.774Z,11.8
2019-03-20T11:33:23.782Z,11.83
2019-03-20T11:34:23.765Z,11.83
2019-03-20T11:35:23.816Z,11.69
2019-03-20T11:36:23.740Z,11.7
2019-03-20T11:37:23.742Z,11.65
2019-03-20T11:38:23.735Z,11.57
2019-03-20T11:39:34.100Z,11.55
2019-03-20T11:40:23.730Z,11.55
2019-03-20T11:41:23.727Z,11.59
2019-03-20T11:42:23.714Z,11.63
2019-03-20T11:43:23.715Z,11.63
2019-03-20T11:44:23.971Z,11.69
2019-03-20T11:45:26.096Z,11.73
2019-03-20T11:46:23.717Z,11.7
2019-03-20T11:47:23.695Z,11.78
2019-03-20T11:48:23.693Z,11.75
2019-03-20T11:49:23.688Z,11.59
2019-03-20T11:50:23.954Z,11.65
2019-03-20T11:51:23.677Z,11.62
2019-03-20T11:52:23.699Z,11.55
2019-03-20T11:53:23.717Z,11.54
2019-03-20T11:54:23.968Z,11.51
2019-03-20T11:55:23.993Z,11.41
2019-03-20T11:56:23.935Z,11.51
2019-03-20T11:57:26.522Z,11.6
2019-03-20T11:58:23.655Z,11.75
2019-03-20T11:59:23.919Z,11.86
2019-03-20T12:00:23.779Z,11.83
2019-03-20T12:01:23.904Z,11.95
2019-03-20T12:02:32.650Z,11.83
2019-03-20T12:03:23.652Z,11.81
2019-03-20T12:04:23.884Z,11.77
2019-03-20T12:05:23.657Z,11.72
2019-03-20T12:06:23.371Z,11.78
2019-03-20T12:07:23.614Z,11.8
2019-03-20T12:08:23.374Z,11.83
2019-03-20T12:09:23.867Z,11.8
2019-03-20T12:10:23.606Z,11.75
2019-03-20T12:11:23.987Z,11.77
2019-03-20T12:12:23.905Z,11.69
2019-03-20T12:13:23.629Z,11.59
2019-03-20T12:14:23.587Z,11.52
2019-03-20T12:15:23.924Z,11.43
2019-03-20T12:16:23.577Z,11.4
2019-03-20T12:17:25.166Z,11.32
2019-03-20T12:18:23.572Z,11.36
2019-03-20T12:19:23.309Z,11.44
2019-03-20T12:20:23.906Z,11.55
2019-03-20T12:21:23.565Z,11.52
2019-03-20T12:22:23.807Z,11.6
2019-03-20T12:23:23.549Z,11.73
2019-03-20T12:24:23.539Z,11.83
2019-03-20T12:25:23.597Z,11.83
2019-03-20T12:26:23.791Z,12.03
2019-03-20T12:27:23.801Z,12.12
2019-03-20T12:28:23.792Z,12.12
2019-03-20T12:29:23.262Z,12
2019-03-20T12:30:23.850Z,11.72
2019-03-20T12:31:23.511Z,11.6
2019-03-20T12:32:23.795Z,11.52
2019-03-20T12:33:23.243Z,11.47
2019-03-20T12:34:24.555Z,11.47
2019-03-20T12:35:23.502Z,11.51
2019-03-20T12:36:23.238Z,11.59
2019-03-20T12:37:23.232Z,11.75
2019-03-20T12:38:23.760Z,11.78
2019-03-20T12:39:23.232Z,11.84
2019-03-20T12:40:23.494Z,12
2019-03-20T12:41:23.225Z,11.99
2019-03-20T12:42:23.740Z,12
2019-03-20T12:43:23.815Z,12.09
2019-03-20T12:44:23.542Z,12.18
2019-03-20T12:45:23.474Z,12.22
2019-03-20T12:46:23.456Z,12.24
2019-03-20T12:47:23.450Z,12.32
2019-03-20T12:48:23.706Z,12.2
2019-03-20T12:49:23.715Z,12.21
2019-03-20T12:50:23.183Z,12.25
2019-03-20T12:51:23.185Z,12.18
2019-03-20T12:52:23.692Z,11.99
2019-03-20T12:53:23.677Z,12.03
2019-03-20T12:54:23.174Z,11.91
2019-03-20T12:55:23.700Z,11.81
2019-03-20T12:56:23.171Z,11.86
2019-03-20T12:57:23.671Z,11.84
2019-03-20T12:58:23.668Z,11.75
2019-03-20T12:59:23.668Z,11.83
2019-03-20T13:00:23.722Z,11.86
2019-03-20T13:01:23.658Z,11.88
2019-03-20T13:02:23.645Z,12.04
2019-03-20T13:03:23.446Z,12.03
2019-03-20T13:04:23.393Z,12
2019-03-20T13:05:23.629Z,12.06
2019-03-20T13:06:23.121Z,12
2019-03-20T13:07:23.622Z,12.07
2019-03-20T13:08:23.615Z,12.1
2019-03-20T13:09:24.178Z,12.13
2019-03-20T13:10:23.643Z,12.21
2019-03-20T13:11:23.116Z,12.2
2019-03-20T13:12:23.600Z,12.35
2019-03-20T13:13:23.698Z,12.45
2019-03-20T13:14:23.086Z,12.54
2019-03-20T13:15:23.431Z,12.49
2019-03-20T13:16:23.346Z,12.46